createdAt,value
2022-08-20T00:00:17.087Z,9.50
2022-08-20T00:02:47.642Z,10.05
2022-08-20T00:05:17.194Z,11.20
2022-08-20T00:07:43.934Z,9.98
2022-08-20T00:10:10.688Z,9.70
2022-08-20T00:12:43.221Z,9.18
2022-08-20T00:15:10.094Z,9.13
2022-08-20T00:17:39.460Z,9.45
2022-08-20T00:20:10.308Z,9.52
2022-08-20T00:22:37.033Z,10.23
2022-08-20T00:25:06.334Z,9.57
2022-08-20T00:27:33.123Z,10.10
2022-08-20T00:29:59.902Z,10.30
2022-08-20T00:32:26.481Z,10.00
2022-08-20T00:34:54.547Z,9.90
2022-08-20T00:37:21.139Z,11.20
2022-08-20T00:39:47.819Z,11.13
2022-08-20T00:42:14.564Z,9.88
2022-08-20T00:44:46.319Z,10.82
2022-08-20T00:47:15.788Z,10.60
2022-08-20T00:49:42.459Z,10.23
2022-08-20T00:52:17.614Z,10.73
2022-08-20T00:54:52.154Z,11.25
2022-08-20T00:57:58.936Z,11.13
2022-08-20T01:00:28.855Z,12.55
2022-08-20T01:02:57.812Z,11.98
2022-08-20T01:05:29.426Z,11.52
2022-08-20T01:07:57.704Z,11.43
2022-08-20T01:10:32.546Z,10.80
2022-08-20T01:12:59.948Z,11.32
2022-08-20T01:15:31.909Z,9.82
2022-08-20T01:18:01.068Z,10.48
2022-08-20T01:20:34.178Z,9.15
2022-08-20T01:23:30.036Z,10.05
2022-08-20T01:26:06.117Z,9.57
2022-08-20T01:28:41.375Z,10.23
2022-08-20T01:31:13.498Z,10.23
2022-08-20T01:33:41.135Z,10.25
2022-08-20T01:36:12.549Z,9.25
2022-08-20T01:38:40.327Z,10.13
2022-08-20T01:41:35.299Z,11.02
2022-08-20T01:44:02.693Z,10.60
2022-08-20T01:46:36.890Z,11.15
2022-08-20T01:49:23.697Z,10.27
2022-08-20T01:51:52.750Z,9.60
2022-08-20T01:54:20.403Z,10.27
2022-08-20T01:58:40.757Z,10.07
2022-08-20T02:01:07.482Z,9.80
2022-08-20T02:03:38.762Z,10.85
2022-08-20T02:06:07.068Z,9.50
2022-08-20T02:08:33.789Z,9.70
2022-08-20T02:11:00.317Z,8.48
2022-08-20T02:13:27.080Z,9.40
2022-08-20T02:15:53.783Z,8.75
2022-08-20T02:18:24.006Z,8.57
2022-08-20T02:20:52.437Z,8.45
2022-08-20T02:23:19.040Z,8.07
2022-08-20T02:25:47.719Z,8.30
2022-08-20T02:28:17.924Z,7.57
2022-08-20T02:30:48.407Z,8.00
2022-08-20T02:33:18.112Z,8.27
2022-08-20T02:35:48.083Z,8.52
2022-08-20T02:38:16.276Z,9.50
2022-08-20T02:40:44.349Z,9.50
2022-08-20T02:43:12.293Z,9.38
2022-08-20T02:45:44.067Z,9.73
2022-08-20T02:48:20.821Z,8.50
2022-08-20T02:50:50.965Z,9.00
2022-08-20T02:53:17.992Z,9.15
2022-08-20T02:55:44.715Z,7.55
2022-08-20T02:58:11.780Z,8.27
2022-08-20T03:00:39.034Z,7.28
2022-08-20T03:03:10.494Z,6.53
2022-08-20T03:05:39.411Z,6.20
2022-08-20T03:08:08.462Z,7.35
2022-08-20T03:10:40.060Z,7.63
2022-08-20T03:13:12.831Z,8.50
2022-08-20T03:15:48.592Z,8.30
2022-08-20T03:18:16.434Z,10.43
2022-08-20T03:20:43.619Z,9.05
2022-08-20T03:23:13.389Z,8.90
2022-08-20T03:25:40.126Z,10.43
2022-08-20T03:28:06.874Z,10.13
2022-08-20T03:30:33.711Z,9.85
2022-08-20T03:33:00.333Z,9.65
2022-08-20T03:35:29.127Z,8.98
2022-08-20T03:37:58.827Z,9.20
2022-08-20T03:40:32.151Z,9.60
2022-08-20T03:42:59.983Z,9.35
2022-08-20T03:45:27.828Z,9.38
2022-08-20T03:47:55.692Z,9.98
2022-08-20T03:50:26.048Z,9.65
2022-08-20T03:52:54.190Z,9.40
2022-08-20T03:55:22.593Z,9.00
2022-08-20T03:59:33.179Z,8.95
2022-08-20T04:02:00.966Z,8.23
2022-08-20T04:04:27.591Z,9.02
2022-08-20T04:06:54.462Z,9.45
2022-08-20T04:09:21.198Z,9.35
2022-08-20T04:11:48.103Z,9.10
2022-08-20T04:14:18.701Z,8.35
2022-08-20T04:16:47.568Z,10.30
2022-08-20T04:19:15.807Z,9.18
2022-08-20T04:21:42.442Z,9.27
2022-08-20T04:24:09.069Z,8.05
2022-08-20T04:26:55.925Z,9.60
2022-08-20T04:29:32.452Z,9.52
2022-08-20T04:32:00.760Z,9.05
2022-08-20T04:34:30.606Z,8.27
2022-08-20T04:36:57.250Z,8.95
2022-08-20T04:39:24.045Z,8.32
2022-08-20T04:41:50.657Z,8.35
2022-08-20T04:44:17.290Z,7.75
2022-08-20T04:46:44.027Z,8.38
2022-08-20T04:49:10.747Z,7.32
2022-08-20T04:51:37.331Z,8.65
2022-08-20T04:54:04.592Z,8.07
2022-08-20T04:56:40.803Z,7.82
2022-08-20T04:59:08.241Z,7.63
2022-08-20T05:01:35.942Z,8.88
2022-08-20T05:04:02.804Z,8.52
2022-08-20T05:06:31.719Z,9.82
2022-08-20T05:08:59.566Z,11.05
2022-08-20T05:11:34.110Z,10.88
2022-08-20T05:14:04.063Z,10.02
2022-08-20T05:16:31.455Z,10.57
2022-08-20T05:18:58.064Z,10.23
2022-08-20T05:21:24.716Z,10.27
2022-08-20T05:23:51.344Z,10.45
2022-08-20T05:26:20.329Z,9.75
2022-08-20T05:28:57.924Z,9.63
2022-08-20T05:31:31.457Z,8.43
2022-08-20T05:33:59.678Z,9.18
2022-08-20T05:36:26.379Z,10.18
2022-08-20T05:38:53.976Z,8.70
2022-08-20T05:41:28.837Z,9.00
2022-08-20T05:44:03.020Z,9.40
2022-08-20T05:46:31.609Z,10.15
2022-08-20T05:49:00.115Z,9.52
2022-08-20T05:51:29.487Z,8.95
2022-08-20T05:53:59.334Z,9.30
2022-08-20T05:56:27.422Z,9.50
2022-08-20T06:00:33.451Z,9.18
2022-08-20T06:03:18.745Z,9.27
2022-08-20T06:05:46.060Z,9.27
2022-08-20T06:08:14.774Z,10.20
2022-08-20T06:10:42.619Z,9.60
2022-08-20T06:13:13.934Z,9.10
2022-08-20T06:15:41.146Z,9.50
2022-08-20T06:18:13.005Z,9.05
2022-08-20T06:20:55.735Z,9.65
2022-08-20T06:23:23.471Z,9.43
2022-08-20T06:25:50.523Z,9.23
2022-08-20T06:28:17.927Z,9.30
2022-08-20T06:30:44.745Z,8.75
2022-08-20T06:33:14.167Z,9.50
2022-08-20T06:35:41.589Z,9.07
2022-08-20T06:38:11.923Z,8.70
2022-08-20T06:40:38.840Z,7.95
2022-08-20T06:43:06.518Z,9.55
2022-08-20T06:45:33.340Z,7.78
2022-08-20T06:48:06.317Z,7.97
2022-08-20T06:50:45.847Z,8.90
2022-08-20T06:53:17.551Z,8.60
2022-08-20T06:55:48.754Z,7.45
2022-08-20T06:58:37.705Z,7.63
2022-08-20T07:01:09.191Z,7.95
2022-08-20T07:03:38.475Z,7.03
2022-08-20T07:06:05.470Z,7.55
2022-08-20T07:08:33.408Z,7.10
2022-08-20T07:11:00.133Z,7.00
2022-08-20T07:13:26.952Z,7.65
2022-08-20T07:15:54.007Z,6.65
2022-08-20T07:18:27.865Z,7.65
2022-08-20T07:20:57.661Z,8.07
2022-08-20T07:23:28.050Z,7.07
2022-08-20T07:25:55.874Z,7.80
2022-08-20T07:28:27.242Z,7.00
2022-08-20T07:31:14.451Z,7.13
2022-08-20T07:33:45.501Z,6.55
2022-08-20T07:36:12.996Z,6.60
2022-08-20T07:38:40.126Z,5.97
2022-08-20T07:41:13.471Z,6.40
2022-08-20T07:43:41.796Z,7.00
2022-08-20T07:46:09.408Z,7.50
2022-08-20T07:48:40.193Z,6.20
2022-08-20T07:51:09.133Z,6.07
2022-08-20T07:53:37.919Z,6.88
2022-08-20T07:56:07.264Z,6.03
2022-08-20T08:01:36.530Z,6.18
2022-08-20T08:04:03.841Z,6.85
2022-08-20T08:06:31.793Z,6.13
2022-08-20T08:09:04.491Z,6.22
2022-08-20T08:11:39.339Z,5.95
2022-08-20T08:14:09.683Z,5.80
2022-08-20T08:16:40.028Z,6.35
2022-08-20T08:19:09.218Z,6.38
2022-08-20T08:21:36.002Z,6.97
2022-08-20T08:24:03.296Z,5.93
2022-08-20T08:26:30.114Z,6.30
2022-08-20T08:28:58.522Z,6.35
2022-08-20T08:31:25.984Z,6.85
2022-08-20T08:33:52.824Z,6.63
2022-08-20T08:36:19.472Z,7.05
2022-08-20T08:38:46.572Z,6.40
2022-08-20T08:41:34.226Z,5.78
2022-08-20T08:44:09.565Z,4.72
2022-08-20T08:46:41.876Z,5.65
2022-08-20T08:49:12.924Z,6.32
2022-08-20T08:51:48.003Z,4.72
2022-08-20T08:54:18.510Z,4.65
2022-08-20T08:56:50.156Z,4.88
2022-08-20T08:59:21.762Z,5.07
2022-08-20T09:01:57.265Z,4.47
2022-08-20T09:04:32.513Z,4.00
2022-08-20T09:07:01.811Z,4.72
2022-08-20T09:09:41.281Z,4.03
2022-08-20T09:12:13.743Z,4.30
2022-08-20T09:14:41.106Z,5.28
2022-08-20T09:17:08.954Z,5.47
2022-08-20T09:19:35.779Z,4.43
2022-08-20T09:22:16.770Z,4.90
2022-08-20T09:24:44.209Z,4.32
2022-08-20T09:27:11.545Z,4.78
2022-08-20T09:29:39.689Z,4.55
2022-08-20T09:32:27.270Z,4.07
2022-08-20T09:34:59.996Z,4.15
2022-08-20T09:37:35.142Z,4.80
2022-08-20T09:40:05.125Z,4.80
2022-08-20T09:42:40.387Z,4.35
2022-08-20T09:45:11.006Z,4.40
2022-08-20T09:47:38.916Z,4.55
2022-08-20T09:50:10.817Z,4.55
2022-08-20T09:52:42.400Z,5.28
2022-08-20T09:55:22.871Z,4.60
2022-08-20T09:57:51.131Z,4.65
2022-08-20T10:02:35.614Z,4.38
2022-08-20T10:05:02.237Z,4.65
2022-08-20T10:07:28.789Z,4.28
2022-08-20T10:09:55.596Z,4.05
2022-08-20T10:12:22.147Z,4.15
2022-08-20T10:14:50.040Z,4.32
2022-08-20T10:17:16.595Z,3.95
2022-08-20T10:19:43.198Z,4.25
2022-08-20T10:22:09.828Z,3.95
2022-08-20T10:24:37.505Z,4.25
2022-08-20T10:27:04.402Z,4.30
2022-08-20T10:29:31.500Z,4.03
2022-08-20T10:32:07.491Z,4.55
2022-08-20T10:34:34.078Z,5.45
2022-08-20T10:37:00.639Z,4.43
2022-08-20T10:39:27.249Z,4.18
2022-08-20T10:41:58.159Z,4.40
2022-08-20T10:44:24.774Z,4.38
2022-08-20T10:46:56.168Z,5.00
2022-08-20T10:49:23.928Z,4.38
2022-08-20T10:51:52.558Z,4.28
2022-08-20T10:54:19.214Z,4.88
2022-08-20T10:56:45.812Z,4.10
2022-08-20T10:59:12.375Z,4.97
2022-08-20T11:01:39.049Z,4.65
2022-08-20T11:04:06.752Z,4.55
2022-08-20T11:06:33.345Z,5.00
2022-08-20T11:09:00.383Z,4.30
2022-08-20T11:11:29.323Z,4.78
2022-08-20T11:13:56.569Z,4.50
2022-08-20T11:16:24.525Z,4.88
2022-08-20T11:18:54.065Z,5.50
2022-08-20T11:21:20.842Z,3.83
2022-08-20T11:23:47.581Z,4.50
2022-08-20T11:26:21.903Z,4.25
2022-08-20T11:28:48.671Z,4.05
2022-08-20T11:31:15.274Z,4.05
2022-08-20T11:33:41.862Z,4.47
2022-08-20T11:36:09.905Z,4.57
2022-08-20T11:38:36.451Z,4.25
2022-08-20T11:41:02.996Z,3.95
2022-08-20T11:43:29.580Z,4.10
2022-08-20T11:45:56.553Z,3.83
2022-08-20T11:48:23.639Z,5.82
2022-08-20T11:50:50.749Z,4.40
2022-08-20T11:53:17.891Z,4.22
2022-08-20T11:55:45.034Z,5.10
2022-08-20T11:58:12.400Z,4.03
2022-08-20T12:03:33.129Z,3.72
2022-08-20T12:05:59.888Z,4.20
2022-08-20T12:08:27.410Z,4.18
2022-08-20T12:11:01.073Z,5.65
2022-08-20T12:13:39.679Z,3.83
2022-08-20T12:16:14.423Z,3.67
2022-08-20T12:18:41.076Z,4.30
2022-08-20T12:21:07.719Z,4.85
2022-08-20T12:23:34.421Z,4.07
2022-08-20T12:26:03.359Z,4.30
2022-08-20T12:28:31.560Z,4.57
2022-08-20T12:30:58.613Z,4.18
2022-08-20T12:33:25.806Z,4.68
2022-08-20T12:35:52.890Z,7.25
2022-08-20T12:38:19.738Z,4.53
2022-08-20T12:40:46.696Z,4.75
2022-08-20T12:43:13.313Z,5.20
2022-08-20T12:45:43.131Z,4.53
2022-08-20T12:48:12.637Z,5.45
2022-08-20T12:50:43.147Z,4.55
2022-08-20T12:53:10.009Z,5.10
2022-08-20T12:55:37.039Z,5.43
2022-08-20T12:58:08.019Z,4.57
2022-08-20T13:00:38.641Z,5.93
2022-08-20T13:03:06.894Z,6.13
2022-08-20T13:05:35.033Z,4.53
2022-08-20T13:08:01.982Z,5.10
2022-08-20T13:10:34.063Z,4.97
2022-08-20T13:13:04.041Z,5.20
2022-08-20T13:15:32.481Z,5.25
2022-08-20T13:18:02.072Z,5.85
2022-08-20T13:20:34.003Z,5.28
2022-08-20T13:23:02.227Z,6.22
2022-08-20T13:25:28.895Z,4.78
2022-08-20T13:28:01.153Z,4.88
2022-08-20T13:30:27.809Z,4.57
2022-08-20T13:32:54.759Z,3.80
2022-08-20T13:35:22.483Z,3.78
2022-08-20T13:37:50.029Z,4.82
2022-08-20T13:40:17.874Z,7.03
2022-08-20T13:42:44.676Z,3.85
2022-08-20T13:45:11.557Z,4.55
2022-08-20T13:47:40.597Z,27.73
2022-08-20T13:50:12.957Z,4.25
2022-08-20T13:52:40.095Z,4.10
2022-08-20T13:55:11.383Z,3.85
2022-08-20T13:57:41.354Z,3.92
2022-08-20T14:00:13.116Z,4.25
2022-08-20T14:04:40.156Z,3.95
2022-08-20T14:07:09.764Z,4.40
2022-08-20T14:09:46.091Z,3.97
2022-08-20T14:12:13.523Z,3.88
2022-08-20T14:14:41.089Z,4.57
2022-08-20T14:17:22.080Z,4.07
2022-08-20T14:19:49.498Z,5.95
2022-08-20T14:22:17.939Z,4.65
2022-08-20T14:24:47.063Z,3.72
2022-08-20T14:27:15.902Z,4.00
2022-08-20T14:29:44.716Z,4.28
2022-08-20T14:32:11.508Z,4.20
2022-08-20T14:34:38.390Z,3.88
2022-08-20T14:37:14.166Z,3.95
2022-08-20T14:39:42.089Z,5.15
2022-08-20T14:42:09.105Z,3.72
2022-08-20T14:44:36.402Z,4.60
2022-08-20T14:47:14.973Z,4.40
2022-08-20T14:49:42.385Z,5.13
2022-08-20T14:52:09.285Z,5.15
2022-08-20T14:54:39.099Z,4.47
2022-08-20T14:57:05.972Z,4.28
2022-08-20T14:59:40.321Z,5.00
2022-08-20T15:02:09.196Z,3.97
2022-08-20T15:04:36.548Z,4.43
2022-08-20T15:07:10.847Z,4.35
2022-08-20T15:09:37.826Z,5.03
2022-08-20T15:12:04.896Z,5.25
2022-08-20T15:14:31.515Z,4.60
2022-08-20T15:16:58.455Z,4.85
2022-08-20T15:19:25.119Z,4.28
2022-08-20T15:21:52.814Z,5.00
2022-08-20T15:24:19.738Z,4.72
2022-08-20T15:26:47.025Z,5.07
2022-08-20T15:29:22.671Z,5.00
2022-08-20T15:31:50.591Z,4.75
2022-08-20T15:34:17.546Z,4.65
2022-08-20T15:36:44.892Z,4.45
2022-08-20T15:39:11.446Z,4.63
2022-08-20T15:41:38.051Z,5.30
2022-08-20T15:44:04.844Z,4.97
2022-08-20T15:46:36.121Z,4.97
2022-08-20T15:49:11.435Z,4.20
2022-08-20T15:51:49.683Z,5.03
2022-08-20T15:54:22.972Z,5.65
2022-08-20T15:56:59.858Z,5.90
2022-08-20T16:00:00.669Z,4.70
2022-08-20T16:05:52.820Z,5.35
2022-08-20T16:11:20.147Z,5.25
2022-08-20T16:13:55.212Z,5.60
2022-08-20T16:16:33.717Z,4.65
2022-08-20T16:19:00.815Z,5.50
2022-08-20T16:21:34.882Z,5.03
2022-08-20T16:24:01.782Z,4.75
2022-08-20T16:26:43.874Z,4.90
2022-08-20T16:29:15.011Z,4.97
2022-08-20T16:32:00.369Z,6.07
2022-08-20T16:34:45.874Z,4.82
2022-08-20T16:37:25.800Z,5.78
2022-08-20T16:39:58.040Z,5.53
2022-08-20T16:42:29.720Z,5.10
2022-08-20T16:44:57.735Z,6.45
2022-08-20T16:47:35.938Z,6.43
2022-08-20T16:50:13.627Z,5.50
2022-08-20T16:52:44.509Z,8.10
2022-08-20T16:55:12.852Z,6.18
2022-08-20T16:57:50.100Z,6.38
2022-08-20T17:00:25.748Z,6.72
2022-08-20T17:02:54.566Z,5.70
2022-08-20T17:05:23.963Z,5.10
2022-08-20T17:08:04.757Z,6.20
2022-08-20T17:10:53.287Z,5.80
2022-08-20T17:13:23.853Z,6.00
2022-08-20T17:15:58.432Z,14.00
2022-08-20T17:18:32.793Z,14.40
2022-08-20T17:21:23.293Z,6.18
2022-08-20T17:23:56.443Z,7.70
2022-08-20T17:26:35.577Z,6.20
2022-08-20T17:29:13.609Z,5.80
2022-08-20T17:31:45.659Z,5.45
2022-08-20T17:34:19.350Z,5.40
2022-08-20T17:37:34.736Z,5.45
2022-08-20T17:40:18.355Z,5.93
2022-08-20T17:42:58.526Z,6.70
2022-08-20T17:45:30.702Z,5.50
2022-08-20T17:48:00.123Z,5.55
2022-08-20T17:50:37.214Z,5.53
2022-08-20T17:53:24.311Z,6.22
2022-08-20T17:55:58.496Z,5.43
2022-08-20T17:58:41.917Z,5.70
2022-08-20T18:01:24.427Z,5.45
2022-08-20T18:06:58.614Z,5.80
2022-08-20T18:09:38.220Z,5.85
2022-08-20T18:12:21.796Z,6.05
2022-08-20T18:15:24.481Z,6.15
2022-08-20T18:18:01.326Z,5.90
2022-08-20T18:20:52.645Z,6.60
2022-08-20T18:23:25.514Z,6.93
2022-08-20T18:25:55.285Z,6.20
2022-08-20T18:28:45.796Z,7.32
2022-08-20T18:31:45.176Z,7.30
2022-08-20T18:34:19.774Z,8.20
2022-08-20T18:36:58.393Z,7.65
2022-08-20T18:39:39.436Z,8.40
2022-08-20T18:42:09.265Z,8.60
2022-08-20T18:44:48.381Z,8.85
2022-08-20T18:47:33.345Z,7.85
2022-08-20T18:50:15.866Z,7.90
2022-08-20T18:53:07.379Z,7.93
2022-08-20T18:55:38.578Z,7.88
2022-08-20T18:58:09.226Z,9.48
2022-08-20T19:00:48.052Z,12.10
2022-08-20T19:03:24.053Z,12.07
2022-08-20T19:06:02.752Z,12.65
2022-08-20T19:08:45.158Z,21.58
2022-08-20T19:11:20.521Z,23.77
2022-08-20T19:14:20.230Z,14.00
2022-08-20T19:16:58.883Z,12.63
2022-08-20T19:19:29.653Z,11.90
2022-08-20T19:22:01.170Z,10.05
2022-08-20T19:24:31.480Z,8.85
2022-08-20T19:27:02.480Z,8.85
2022-08-20T19:29:32.763Z,8.85
2022-08-20T19:32:09.706Z,8.23
2022-08-20T19:34:36.563Z,8.23
2022-08-20T19:37:35.502Z,6.93
2022-08-20T19:40:18.660Z,7.20
2022-08-20T19:42:45.912Z,7.30
2022-08-20T19:45:24.270Z,8.43
2022-08-20T19:48:10.545Z,6.65
2022-08-20T19:51:03.031Z,7.00
2022-08-20T19:53:32.722Z,8.80
2022-08-20T19:56:07.229Z,7.53
2022-08-20T19:58:34.918Z,7.15
2022-08-20T20:01:03.323Z,7.07
2022-08-20T20:03:34.206Z,7.32
2022-08-20T20:07:43.248Z,7.57
2022-08-20T20:10:29.438Z,8.38
2022-08-20T20:12:59.598Z,7.10
2022-08-20T20:15:26.695Z,7.35
2022-08-20T20:17:54.838Z,7.57
2022-08-20T20:20:32.172Z,7.75
2022-08-20T20:23:13.561Z,8.15
2022-08-20T20:25:53.451Z,6.50
2022-08-20T20:28:29.259Z,7.65
2022-08-20T20:31:06.567Z,7.82
2022-08-20T20:33:43.916Z,7.43
2022-08-20T20:36:30.390Z,8.27
2022-08-20T20:39:00.539Z,7.57
2022-08-20T20:41:31.372Z,6.78
2022-08-20T20:44:22.344Z,7.55
2022-08-20T20:46:52.677Z,6.68
2022-08-20T20:49:24.919Z,7.45
2022-08-20T20:51:59.425Z,7.80
2022-08-20T20:54:35.333Z,7.35
2022-08-20T20:57:05.869Z,7.50
2022-08-20T20:59:34.859Z,7.90
2022-08-20T21:02:03.005Z,8.23
2022-08-20T21:04:42.466Z,6.70
2022-08-20T21:07:16.611Z,6.75
2022-08-20T21:09:44.155Z,7.15
2022-08-20T21:12:14.375Z,7.22
2022-08-20T21:14:44.270Z,6.95
2022-08-20T21:17:22.902Z,7.43
2022-08-20T21:19:53.859Z,7.22
2022-08-20T21:22:52.521Z,7.03
2022-08-20T21:25:22.538Z,7.28
2022-08-20T21:27:59.609Z,7.53
2022-08-20T21:31:09.162Z,7.72
2022-08-20T21:34:04.322Z,6.05
2022-08-20T21:37:09.710Z,8.15
2022-08-20T21:39:44.840Z,6.68
2022-08-20T21:42:29.278Z,6.88
2022-08-20T21:47:52.160Z,7.32
2022-08-20T21:50:20.578Z,7.68
2022-08-20T21:52:59.279Z,8.32
2022-08-20T21:55:29.704Z,7.45
2022-08-20T21:58:00.034Z,7.43
2022-08-20T22:00:48.596Z,7.43
2022-08-20T22:03:19.966Z,7.75
2022-08-20T22:08:39.190Z,7.00
2022-08-20T22:11:11.103Z,7.43
2022-08-20T22:13:39.544Z,8.05
2022-08-20T22:16:08.911Z,8.40
2022-08-20T22:18:38.521Z,6.70
2022-08-20T22:21:10.190Z,6.60
2022-08-20T22:23:40.084Z,7.65
2022-08-20T22:26:08.175Z,7.78
2022-08-20T22:28:35.080Z,7.32
2022-08-20T22:31:02.070Z,6.78
2022-08-20T22:33:28.734Z,6.55
2022-08-20T22:35:56.993Z,6.55
2022-08-20T22:38:25.091Z,7.13
2022-08-20T22:40:52.827Z,6.97
2022-08-20T22:43:20.616Z,6.80
2022-08-20T22:45:50.003Z,6.40
2022-08-20T22:48:19.156Z,7.28
2022-08-20T22:50:46.454Z,7.78
2022-08-20T22:53:17.702Z,6.80
2022-08-20T22:55:44.383Z,7.45
2022-08-20T22:58:12.767Z,7.03
2022-08-20T23:00:40.196Z,7.22
2022-08-20T23:03:10.504Z,7.45
2022-08-20T23:05:38.078Z,6.82
2022-08-20T23:08:06.805Z,6.78
2022-08-20T23:10:36.080Z,7.40
2022-08-20T23:13:05.165Z,8.10
2022-08-20T23:15:34.943Z,7.68
2022-08-20T23:18:06.747Z,7.88
2022-08-20T23:20:33.536Z,7.00
2022-08-20T23:23:00.309Z,8.07
2022-08-20T23:25:27.281Z,7.10
2022-08-20T23:27:56.670Z,7.28
2022-08-20T23:30:30.309Z,7.72
2022-08-20T23:32:57.074Z,7.45
2022-08-20T23:35:25.339Z,7.93
2022-08-20T23:37:58.730Z,7.32
2022-08-20T23:40:28.653Z,7.60
2022-08-20T23:42:56.607Z,7.20
2022-08-20T23:45:23.760Z,7.97
2022-08-20T23:47:50.688Z,7.57
2022-08-20T23:50:20.835Z,8.30
2022-08-20T23:52:47.728Z,8.32
2022-08-20T23:55:14.480Z,7.97
2022-08-20T23:57:41.324Z,6.82
